sensor_id;sensor_type;location;lat;lon;timestamp;pressure;altitude;pressure_sealevel;temperature;humidity
75895;BME280;64573;50.328;15.014;2023-11-21T00:02:01;98198.25;;;15.51;100.00
75895;BME280;64573;50.328;15.014;2023-11-21T00:04:26;98203.88;;;15.49;100.00
75895;BME280;64573;50.328;15.014;2023-11-21T00:06:53;98206.41;;;15.32;100.00
75895;BME280;64573;50.328;15.014;2023-11-21T00:09:18;98197.66;;;15.60;100.00
75895;BME280;64573;50.328;15.014;2023-11-21T00:11:44;98199.91;;;15.52;100.00
75895;BME280;64573;50.328;15.014;2023-11-21T00:14:13;98203.31;;;15.59;100.00
75895;BME280;64573;50.328;15.014;2023-11-21T00:16:40;98198.66;;;15.66;100.00
75895;BME280;64573;50.328;15.014;2023-11-21T00:19:06;98198.31;;;15.74;100.00
75895;BME280;64573;50.328;15.014;2023-11-21T00:21:31;98193.06;;;15.49;100.00
75895;BME280;64573;50.328;15.014;2023-11-21T00:23:56;98197.44;;;15.20;100.00
75895;BME280;64573;50.328;15.014;2023-11-21T00:26:21;98197.09;;;14.68;100.00
75895;BME280;64573;50.328;15.014;2023-11-21T00:28:47;98194.88;;;14.03;100.00
75895;BME280;64573;50.328;15.014;2023-11-21T00:31:12;98202.31;;;13.83;100.00
75895;BME280;64573;50.328;15.014;2023-11-21T00:33:38;98211.38;;;14.14;100.00
75895;BME280;64573;50.328;15.014;2023-11-21T00:36:04;98207.13;;;14.43;100.00
75895;BME280;64573;50.328;15.014;2023-11-21T00:38:35;98203.78;;;14.66;100.00
75895;BME280;64573;50.328;15.014;2023-11-21T00:41:01;98208.22;;;15.08;100.00
75895;BME280;64573;50.328;15.014;2023-11-21T00:43:26;98205.69;;;15.25;100.00
75895;BME280;64573;50.328;15.014;2023-11-21T00:45:51;98205.13;;;15.65;100.00
75895;BME280;64573;50.328;15.014;2023-11-21T00:48:17;98207.59;;;15.78;100.00
75895;BME280;64573;50.328;15.014;2023-11-21T00:50:43;98196.22;;;15.88;100.00
75895;BME280;64573;50.328;15.014;2023-11-21T00:53:09;98203.16;;;15.95;99.72
75895;BME280;64573;50.328;15.014;2023-11-21T00:55:34;98202.56;;;15.93;99.62
75895;BME280;64573;50.328;15.014;2023-11-21T00:58:00;98201.84;;;15.98;99.05
75895;BME280;64573;50.328;15.014;2023-11-21T01:00:25;98199.50;;;15.90;99.52
75895;BME280;64573;50.328;15.014;2023-11-21T01:02:51;98207.38;;;15.91;99.16
75895;BME280;64573;50.328;15.014;2023-11-21T01:05:17;98204.09;;;15.89;99.19
75895;BME280;64573;50.328;15.014;2023-11-21T01:07:42;98205.03;;;15.95;98.83
75895;BME280;64573;50.328;15.014;2023-11-21T01:12:37;98209.28;;;15.49;100.00
75895;BME280;64573;50.328;15.014;2023-11-21T01:15:06;98210.91;;;15.80;100.00
75895;BME280;64573;50.328;15.014;2023-11-21T01:17:32;98212.66;;;15.75;100.00
75895;BME280;64573;50.328;15.014;2023-11-21T01:20:00;98212.75;;;15.68;100.00
75895;BME280;64573;50.328;15.014;2023-11-21T01:22:25;98219.19;;;15.25;100.00
75895;BME280;64573;50.328;15.014;2023-11-21T01:24:52;98219.22;;;15.67;100.00
75895;BME280;64573;50.328;15.014;2023-11-21T01:27:18;98210.63;;;15.70;100.00
75895;BME280;64573;50.328;15.014;2023-11-21T01:29:43;98207.59;;;15.78;100.00
75895;BME280;64573;50.328;15.014;2023-11-21T01:32:09;98208.09;;;15.57;100.00
75895;BME280;64573;50.328;15.014;2023-11-21T01:34:35;98208.78;;;15.29;100.00
75895;BME280;64573;50.328;15.014;2023-11-21T01:37:00;98209.53;;;15.59;100.00
75895;BME280;64573;50.328;15.014;2023-11-21T01:39:27;98202.69;;;15.87;100.00
75895;BME280;64573;50.328;15.014;2023-11-21T01:41:53;98207.28;;;16.10;100.00
75895;BME280;64573;50.328;15.014;2023-11-21T01:44:18;98210.78;;;16.10;100.00
75895;BME280;64573;50.328;15.014;2023-11-21T01:46:45;98208.44;;;16.02;100.00
75895;BME280;64573;50.328;15.014;2023-11-21T01:49:12;98215.50;;;16.03;100.00
75895;BME280;64573;50.328;15.014;2023-11-21T01:51:39;98218.34;;;16.08;100.00
75895;BME280;64573;50.328;15.014;2023-11-21T01:54:06;98219.53;;;15.17;100.00
75895;BME280;64573;50.328;15.014;2023-11-21T01:56:32;98220.25;;;15.24;100.00
75895;BME280;64573;50.328;15.014;2023-11-21T01:58:57;98217.25;;;15.44;100.00
75895;BME280;64573;50.328;15.014;2023-11-21T02:01:23;98220.56;;;15.46;100.00
75895;BME280;64573;50.328;15.014;2023-11-21T02:03:48;98213.34;;;15.70;100.00
75895;BME280;64573;50.328;15.014;2023-11-21T02:06:14;98218.78;;;15.82;100.00
75895;BME280;64573;50.328;15.014;2023-11-21T02:08:40;98212.78;;;16.03;100.00
75895;BME280;64573;50.328;15.014;2023-11-21T02:11:07;98220.44;;;15.94;100.00
75895;BME280;64573;50.328;15.014;2023-11-21T02:13:34;98216.66;;;16.07;100.00
75895;BME280;64573;50.328;15.014;2023-11-21T02:16:00;98221.59;;;16.34;99.84
75895;BME280;64573;50.328;15.014;2023-11-21T02:18:25;98213.97;;;16.31;100.00
75895;BME280;64573;50.328;15.014;2023-11-21T02:20:51;98209.94;;;16.45;98.96
75895;BME280;64573;50.328;15.014;2023-11-21T02:23:16;98210.78;;;16.45;98.13
75895;BME280;64573;50.328;15.014;2023-11-21T02:25:43;98211.88;;;15.56;100.00
75895;BME280;64573;50.328;15.014;2023-11-21T02:28:08;98212.53;;;16.40;100.00
75895;BME280;64573;50.328;15.014;2023-11-21T02:30:34;98211.03;;;16.09;100.00
75895;BME280;64573;50.328;15.014;2023-11-21T02:33:02;98210.19;;;15.85;100.00
75895;BME280;64573;50.328;15.014;2023-11-21T02:35:27;98211.56;;;14.74;100.00
75895;BME280;64573;50.328;15.014;2023-11-21T02:40:18;98200.13;;;15.50;100.00
75895;BME280;64573;50.328;15.014;2023-11-21T02:42:45;98211.97;;;15.79;100.00
75895;BME280;64573;50.328;15.014;2023-11-21T02:45:15;98208.47;;;15.18;100.00
75895;BME280;64573;50.328;15.014;2023-11-21T02:47:44;98203.72;;;15.86;100.00
75895;BME280;64573;50.328;15.014;2023-11-21T02:50:10;98202.41;;;15.77;100.00
75895;BME280;64573;50.328;15.014;2023-11-21T02:52:35;98207.25;;;15.75;100.00
75895;BME280;64573;50.328;15.014;2023-11-21T02:55:04;98205.78;;;15.60;100.00
75895;BME280;64573;50.328;15.014;2023-11-21T02:57:30;98207.47;;;15.31;100.00
75895;BME280;64573;50.328;15.014;2023-11-21T02:59:55;98209.66;;;15.53;100.00
75895;BME280;64573;50.328;15.014;2023-11-21T03:02:21;98208.59;;;15.54;100.00
75895;BME280;64573;50.328;15.014;2023-11-21T03:04:47;98201.72;;;15.93;100.00
75895;BME280;64573;50.328;15.014;2023-11-21T03:07:15;98203.25;;;15.77;100.00
75895;BME280;64573;50.328;15.014;2023-11-21T03:09:41;98195.84;;;15.84;100.00
75895;BME280;64573;50.328;15.014;2023-11-21T03:12:06;98200.72;;;15.52;100.00
75895;BME280;64573;50.328;15.014;2023-11-21T03:14:31;98194.22;;;15.41;100.00
75895;BME280;64573;50.328;15.014;2023-11-21T03:16:57;98202.00;;;15.08;100.00
75895;BME280;64573;50.328;15.014;2023-11-21T03:19:22;98193.25;;;14.94;100.00
75895;BME280;64573;50.328;15.014;2023-11-21T03:24:17;98210.75;;;15.22;100.00
75895;BME280;64573;50.328;15.014;2023-11-21T03:26:45;98210.25;;;15.25;100.00
75895;BME280;64573;50.328;15.014;2023-11-21T03:29:11;98217.72;;;15.41;100.00
75895;BME280;64573;50.328;15.014;2023-11-21T03:31:36;98210.91;;;15.08;100.00
75895;BME280;64573;50.328;15.014;2023-11-21T03:34:01;98211.06;;;14.65;100.00
75895;BME280;64573;50.328;15.014;2023-11-21T03:38:55;98210.91;;;14.78;100.00
75895;BME280;64573;50.328;15.014;2023-11-21T03:41:21;98213.44;;;14.55;100.00
75895;BME280;64573;50.328;15.014;2023-11-21T03:43:46;98215.91;;;14.38;100.00
75895;BME280;64573;50.328;15.014;2023-11-21T03:46:11;98215.81;;;14.26;100.00
75895;BME280;64573;50.328;15.014;2023-11-21T03:48:37;98222.94;;;14.21;100.00
75895;BME280;64573;50.328;15.014;2023-11-21T03:51:03;98222.47;;;14.05;100.00
75895;BME280;64573;50.328;15.014;2023-11-21T03:53:28;98225.69;;;14.14;100.00
75895;BME280;64573;50.328;15.014;2023-11-21T03:55:54;98233.09;;;14.19;100.00
75895;BME280;64573;50.328;15.014;2023-11-21T03:58:19;98241.69;;;14.34;100.00
75895;BME280;64573;50.328;15.014;2023-11-21T04:00:46;98241.31;;;13.80;100.00
75895;BME280;64573;50.328;15.014;2023-11-21T04:03:14;98236.38;;;14.82;100.00
75895;BME280;64573;50.328;15.014;2023-11-21T04:05:39;98244.03;;;14.67;100.00
75895;BME280;64573;50.328;15.014;2023-11-21T04:08:04;98234.03;;;15.04;100.00
75895;BME280;64573;50.328;15.014;2023-11-21T04:10:29;98244.63;;;14.87;100.00
75895;BME280;64573;50.328;15.014;2023-11-21T04:12:55;98238.88;;;15.44;100.00
75895;BME280;64573;50.328;15.014;2023-11-21T04:15:20;98238.69;;;15.57;100.00
75895;BME280;64573;50.328;15.014;2023-11-21T04:17:45;98242.13;;;15.34;100.00
75895;BME280;64573;50.328;15.014;2023-11-21T04:20:11;98246.75;;;15.45;100.00
75895;BME280;64573;50.328;15.014;2023-11-21T04:22:40;98246.88;;;15.81;100.00
75895;BME280;64573;50.328;15.014;2023-11-21T04:25:10;98246.31;;;15.60;100.00
75895;BME280;64573;50.328;15.014;2023-11-21T04:27:39;98242.38;;;15.75;100.00
75895;BME280;64573;50.328;15.014;2023-11-21T04:30:06;98252.03;;;15.82;100.00
75895;BME280;64573;50.328;15.014;2023-11-21T04:35:00;98256.66;;;15.52;100.00
75895;BME280;64573;50.328;15.014;2023-11-21T04:37:25;98254.53;;;15.54;100.00
75895;BME280;64573;50.328;15.014;2023-11-21T04:39:51;98252.50;;;15.49;100.00
75895;BME280;64573;50.328;15.014;2023-11-21T04:42:17;98267.06;;;15.66;100.00
75895;BME280;64573;50.328;15.014;2023-11-21T04:44:42;98268.59;;;15.86;100.00
75895;BME280;64573;50.328;15.014;2023-11-21T04:47:09;98262.38;;;15.85;100.00
75895;BME280;64573;50.328;15.014;2023-11-21T04:49:34;98265.09;;;15.85;100.00
75895;BME280;64573;50.328;15.014;2023-11-21T04:52:00;98258.63;;;15.98;100.00
75895;BME280;64573;50.328;15.014;2023-11-21T04:54:26;98264.41;;;15.60;100.00
75895;BME280;64573;50.328;15.014;2023-11-21T04:56:51;98264.22;;;15.61;100.00
75895;BME280;64573;50.328;15.014;2023-11-21T04:59:17;98264.13;;;15.38;100.00
75895;BME280;64573;50.328;15.014;2023-11-21T05:01:43;98266.72;;;15.75;100.00
75895;BME280;64573;50.328;15.014;2023-11-21T05:04:08;98269.53;;;15.50;100.00
75895;BME280;64573;50.328;15.014;2023-11-21T05:06:34;98261.59;;;15.25;100.00
75895;BME280;64573;50.328;15.014;2023-11-21T05:08:59;98263.09;;;15.51;100.00
75895;BME280;64573;50.328;15.014;2023-11-21T05:11:28;98265.19;;;15.67;100.00
75895;BME280;64573;50.328;15.014;2023-11-21T05:13:54;98254.72;;;15.70;100.00
75895;BME280;64573;50.328;15.014;2023-11-21T05:16:21;98257.66;;;15.69;100.00
75895;BME280;64573;50.328;15.014;2023-11-21T05:18:47;98258.47;;;15.39;100.00
75895;BME280;64573;50.328;15.014;2023-11-21T05:21:12;98254.53;;;15.24;100.00
75895;BME280;64573;50.328;15.014;2023-11-21T05:23:38;98262.78;;;15.29;100.00
75895;BME280;64573;50.328;15.014;2023-11-21T05:26:03;98254.38;;;15.37;100.00
75895;BME280;64573;50.328;15.014;2023-11-21T05:28:29;98262.00;;;15.10;100.00
75895;BME280;64573;50.328;15.014;2023-11-21T05:30:54;98260.94;;;15.41;100.00
75895;BME280;64573;50.328;15.014;2023-11-21T05:33:20;98266.00;;;15.37;100.00
75895;BME280;64573;50.328;15.014;2023-11-21T05:35:48;98264.06;;;15.26;100.00
75895;BME280;64573;50.328;15.014;2023-11-21T05:38:14;98273.28;;;15.37;100.00
75895;BME280;64573;50.328;15.014;2023-11-21T05:40:39;98271.72;;;15.29;100.00
75895;BME280;64573;50.328;15.014;2023-11-21T05:43:05;98271.56;;;15.24;100.00
75895;BME280;64573;50.328;15.014;2023-11-21T05:45:30;98267.22;;;15.23;100.00
75895;BME280;64573;50.328;15.014;2023-11-21T05:47:58;98267.78;;;14.95;100.00
75895;BME280;64573;50.328;15.014;2023-11-21T05:50:27;98275.25;;;15.30;100.00
75895;BME280;64573;50.328;15.014;2023-11-21T05:52:53;98271.78;;;15.53;100.00
75895;BME280;64573;50.328;15.014;2023-11-21T05:55:19;98276.75;;;15.26;100.00
75895;BME280;64573;50.328;15.014;2023-11-21T05:57:46;98283.13;;;15.31;100.00
75895;BME280;64573;50.328;15.014;2023-11-21T06:00:13;98283.59;;;15.28;100.00
75895;BME280;64573;50.328;15.014;2023-11-21T06:02:47;98286.38;;;15.03;100.00
75895;BME280;64573;50.328;15.014;2023-11-21T06:05:15;98291.03;;;15.14;100.00
75895;BME280;64573;50.328;15.014;2023-11-21T06:07:40;98297.84;;;15.17;100.00
75895;BME280;64573;50.328;15.014;2023-11-21T06:10:07;98294.75;;;15.32;100.00
75895;BME280;64573;50.328;15.014;2023-11-21T06:12:37;98293.06;;;14.64;100.00
75895;BME280;64573;50.328;15.014;2023-11-21T06:17:32;98305.50;;;14.40;100.00
75895;BME280;64573;50.328;15.014;2023-11-21T06:19:57;98305.31;;;13.92;100.00
75895;BME280;64573;50.328;15.014;2023-11-21T06:22:22;98314.81;;;14.19;100.00
75895;BME280;64573;50.328;15.014;2023-11-21T06:24:48;98315.75;;;14.31;100.00
75895;BME280;64573;50.328;15.014;2023-11-21T06:27:13;98322.59;;;14.34;100.00
75895;BME280;64573;50.328;15.014;2023-11-21T06:29:39;98320.03;;;14.39;100.00
75895;BME280;64573;50.328;15.014;2023-11-21T06:34:29;98318.88;;;14.78;100.00
75895;BME280;64573;50.328;15.014;2023-11-21T06:36:55;98322.53;;;14.84;100.00
75895;BME280;64573;50.328;15.014;2023-11-21T06:39:20;98328.09;;;14.89;100.00
75895;BME280;64573;50.328;15.014;2023-11-21T06:44:12;98324.31;;;14.53;100.00
75895;BME280;64573;50.328;15.014;2023-11-21T06:46:38;98319.06;;;14.77;100.00
75895;BME280;64573;50.328;15.014;2023-11-21T06:49:05;98323.44;;;14.78;100.00
75895;BME280;64573;50.328;15.014;2023-11-21T06:51:31;98324.84;;;14.62;100.00
75895;BME280;64573;50.328;15.014;2023-11-21T06:53:57;98331.97;;;14.56;100.00
75895;BME280;64573;50.328;15.014;2023-11-21T06:56:22;98327.34;;;14.82;100.00
75895;BME280;64573;50.328;15.014;2023-11-21T06:58:47;98337.75;;;15.15;100.00
75895;BME280;64573;50.328;15.014;2023-11-21T07:01:14;98331.75;;;15.13;100.00
75895;BME280;64573;50.328;15.014;2023-11-21T07:03:40;98335.44;;;15.18;100.00
75895;BME280;64573;50.328;15.014;2023-11-21T07:06:07;98343.00;;;15.28;100.00
75895;BME280;64573;50.328;15.014;2023-11-21T07:08:33;98339.47;;;15.28;100.00
75895;BME280;64573;50.328;15.014;2023-11-21T07:10:58;98340.44;;;15.33;100.00
75895;BME280;64573;50.328;15.014;2023-11-21T07:13:23;98343.34;;;15.50;100.00
75895;BME280;64573;50.328;15.014;2023-11-21T07:15:49;98343.91;;;15.70;100.00
75895;BME280;64573;50.328;15.014;2023-11-21T07:18:14;98345.91;;;15.45;100.00
75895;BME280;64573;50.328;15.014;2023-11-21T07:20:40;98345.75;;;15.58;100.00
75895;BME280;64573;50.328;15.014;2023-11-21T07:23:05;98349.56;;;15.69;100.00
75895;BME280;64573;50.328;15.014;2023-11-21T07:25:31;98348.69;;;15.87;100.00
75895;BME280;64573;50.328;15.014;2023-11-21T07:27:57;98348.03;;;15.43;100.00
75895;BME280;64573;50.328;15.014;2023-11-21T07:30:22;98366.78;;;15.01;100.00
75895;BME280;64573;50.328;15.014;2023-11-21T07:32:48;98366.78;;;15.38;100.00
75895;BME280;64573;50.328;15.014;2023-11-21T07:35:13;98353.97;;;15.82;100.00
75895;BME280;64573;50.328;15.014;2023-11-21T07:37:39;98361.56;;;15.73;100.00
75895;BME280;64573;50.328;15.014;2023-11-21T07:40:05;98355.06;;;15.62;100.00
75895;BME280;64573;50.328;15.014;2023-11-21T07:42:31;98357.78;;;16.04;100.00
75895;BME280;64573;50.328;15.014;2023-11-21T07:47:21;98361.09;;;16.18;100.00
75895;BME280;64573;50.328;15.014;2023-11-21T07:49:46;98357.47;;;16.24;100.00
75895;BME280;64573;50.328;15.014;2023-11-21T07:52:13;98363.72;;;15.83;100.00
75895;BME280;64573;50.328;15.014;2023-11-21T07:54:39;98366.47;;;15.94;100.00
75895;BME280;64573;50.328;15.014;2023-11-21T07:57:05;98361.56;;;16.15;100.00
75895;BME280;64573;50.328;15.014;2023-11-21T07:59:30;98359.38;;;16.35;100.00
75895;BME280;64573;50.328;15.014;2023-11-21T08:01:55;98356.97;;;16.04;100.00
75895;BME280;64573;50.328;15.014;2023-11-21T08:04:21;98356.91;;;16.45;100.00
75895;BME280;64573;50.328;15.014;2023-11-21T08:09:15;98352.91;;;17.06;100.00
75895;BME280;64573;50.328;15.014;2023-11-21T08:14:07;98351.47;;;18.46;90.31
75895;BME280;64573;50.328;15.014;2023-11-21T08:16:33;98365.47;;;18.22;88.38
75895;BME280;64573;50.328;15.014;2023-11-21T08:18:58;98360.59;;;18.24;88.94
75895;BME280;64573;50.328;15.014;2023-11-21T08:23:48;98352.88;;;20.19;75.41
75895;BME280;64573;50.328;15.014;2023-11-21T08:26:24;98348.00;;;19.23;78.60
75895;BME280;64573;50.328;15.014;2023-11-21T08:28:50;98358.06;;;17.20;90.92
75895;BME280;64573;50.328;15.014;2023-11-21T08:31:23;98365.06;;;16.04;100.00
75895;BME280;64573;50.328;15.014;2023-11-21T08:33:49;98369.34;;;15.81;100.00
75895;BME280;64573;50.328;15.014;2023-11-21T08:36:14;98368.22;;;16.00;100.00
75895;BME280;64573;50.328;15.014;2023-11-21T08:38:40;98361.06;;;14.91;100.00
75895;BME280;64573;50.328;15.014;2023-11-21T08:41:07;98379.66;;;15.54;100.00
75895;BME280;64573;50.328;15.014;2023-11-21T08:43:36;98377.81;;;15.36;100.00
75895;BME280;64573;50.328;15.014;2023-11-21T08:46:05;98383.13;;;15.80;100.00
75895;BME280;64573;50.328;15.014;2023-11-21T08:48:30;98371.28;;;16.93;100.00
75895;BME280;64573;50.328;15.014;2023-11-21T08:50:56;98371.38;;;17.33;100.00
75895;BME280;64573;50.328;15.014;2023-11-21T08:53:21;98383.47;;;17.30;100.00
75895;BME280;64573;50.328;15.014;2023-11-21T08:55:47;98392.41;;;17.54;96.57
75895;BME280;64573;50.328;15.014;2023-11-21T08:58:13;98385.47;;;17.47;95.46
75895;BME280;64573;50.328;15.014;2023-11-21T09:00:39;98389.63;;;17.78;96.52
75895;BME280;64573;50.328;15.014;2023-11-21T09:03:05;98391.09;;;17.97;94.12
75895;BME280;64573;50.328;15.014;2023-11-21T09:05:34;98390.00;;;17.70;93.73
75895;BME280;64573;50.328;15.014;2023-11-21T09:07:59;98394.09;;;17.84;95.39
75895;BME280;64573;50.328;15.014;2023-11-21T09:10:24;98399.28;;;17.85;93.34
75895;BME280;64573;50.328;15.014;2023-11-21T09:12:50;98403.59;;;17.98;92.90
75895;BME280;64573;50.328;15.014;2023-11-21T09:15:17;98404.50;;;17.75;93.22
75895;BME280;64573;50.328;15.014;2023-11-21T09:17:42;98400.28;;;17.96;91.16
75895;BME280;64573;50.328;15.014;2023-11-21T09:20:08;98399.22;;;18.26;87.78
75895;BME280;64573;50.328;15.014;2023-11-21T09:22:35;98406.47;;;18.08;90.38
75895;BME280;64573;50.328;15.014;2023-11-21T09:25:00;98397.47;;;18.19;90.22
75895;BME280;64573;50.328;15.014;2023-11-21T09:27:25;98412.97;;;17.15;94.47
75895;BME280;64573;50.328;15.014;2023-11-21T09:29:51;98402.38;;;17.65;96.55
75895;BME280;64573;50.328;15.014;2023-11-21T09:32:18;98409.22;;;16.81;100.00
75895;BME280;64573;50.328;15.014;2023-11-21T09:34:44;98414.59;;;16.46;100.00
75895;BME280;64573;50.328;15.014;2023-11-21T09:37:09;98407.22;;;17.12;100.00
75895;BME280;64573;50.328;15.014;2023-11-21T09:39:35;98417.91;;;16.71;100.00
75895;BME280;64573;50.328;15.014;2023-11-21T09:42:17;98416.50;;;17.39;100.00
75895;BME280;64573;50.328;15.014;2023-11-21T09:45:18;98416.31;;;16.40;100.00
75895;BME280;64573;50.328;15.014;2023-11-21T09:47:46;98413.03;;;16.38;100.00
75895;BME280;64573;50.328;15.014;2023-11-21T09:50:14;98426.13;;;16.53;100.00
75895;BME280;64573;50.328;15.014;2023-11-21T09:53:11;98420.44;;;16.31;100.00
75895;BME280;64573;50.328;15.014;2023-11-21T09:55:42;98418.41;;;17.03;100.00
75895;BME280;64573;50.328;15.014;2023-11-21T09:58:09;98413.09;;;15.23;100.00
75895;BME280;64573;50.328;15.014;2023-11-21T10:00:41;98415.94;;;16.78;99.01
75895;BME280;64573;50.328;15.014;2023-11-21T10:03:08;98420.66;;;16.95;100.00
75895;BME280;64573;50.328;15.014;2023-11-21T10:05:34;98424.41;;;16.94;100.00
75895;BME280;64573;50.328;15.014;2023-11-21T10:08:00;98422.13;;;16.14;100.00
75895;BME280;64573;50.328;15.014;2023-11-21T10:10:27;98418.41;;;16.92;100.00
75895;BME280;64573;50.328;15.014;2023-11-21T10:12:56;98423.34;;;16.71;99.41
75895;BME280;64573;50.328;15.014;2023-11-21T10:15:22;98431.84;;;15.73;100.00
75895;BME280;64573;50.328;15.014;2023-11-21T10:17:49;98429.56;;;16.18;100.00
75895;BME280;64573;50.328;15.014;2023-11-21T10:20:14;98437.78;;;16.12;100.00
75895;BME280;64573;50.328;15.014;2023-11-21T10:22:41;98429.31;;;15.23;100.00
75895;BME280;64573;50.328;15.014;2023-11-21T10:25:08;98436.72;;;15.46;100.00
75895;BME280;64573;50.328;15.014;2023-11-21T10:27:34;98425.47;;;15.67;100.00
75895;BME280;64573;50.328;15.014;2023-11-21T10:30:02;98429.63;;;14.90;100.00
75895;BME280;64573;50.328;15.014;2023-11-21T10:32:28;98438.34;;;14.92;100.00
75895;BME280;64573;50.328;15.014;2023-11-21T10:34:57;98431.41;;;14.53;100.00
75895;BME280;64573;50.328;15.014;2023-11-21T10:37:23;98430.94;;;15.24;100.00
75895;BME280;64573;50.328;15.014;2023-11-21T10:39:48;98438.91;;;15.37;100.00
75895;BME280;64573;50.328;15.014;2023-11-21T10:42:17;98443.19;;;15.45;100.00
75895;BME280;64573;50.328;15.014;2023-11-21T10:44:43;98437.59;;;14.85;100.00
75895;BME280;64573;50.328;15.014;2023-11-21T10:47:10;98437.31;;;15.48;100.00
75895;BME280;64573;50.328;15.014;2023-11-21T10:49:37;98435.59;;;16.32;100.00
75895;BME280;64573;50.328;15.014;2023-11-21T10:52:03;98429.00;;;17.80;100.00
75895;BME280;64573;50.328;15.014;2023-11-21T10:54:29;98432.31;;;17.19;97.35
75895;BME280;64573;50.328;15.014;2023-11-21T10:56:58;98433.34;;;15.69;100.00
75895;BME280;64573;50.328;15.014;2023-11-21T10:59:29;98434.00;;;16.13;100.00
75895;BME280;64573;50.328;15.014;2023-11-21T11:04:20;98436.97;;;14.83;100.00
75895;BME280;64573;50.328;15.014;2023-11-21T11:07:07;98432.31;;;14.72;100.00
75895;BME280;64573;50.328;15.014;2023-11-21T11:09:34;98423.38;;;15.33;100.00
75895;BME280;64573;50.328;15.014;2023-11-21T11:12:02;98426.84;;;14.53;100.00
75895;BME280;64573;50.328;15.014;2023-11-21T11:14:29;98422.81;;;14.87;100.00
75895;BME280;64573;50.328;15.014;2023-11-21T11:16:55;98419.63;;;14.72;100.00
75895;BME280;64573;50.328;15.014;2023-11-21T11:19:24;98423.38;;;15.51;100.00
75895;BME280;64573;50.328;15.014;2023-11-21T11:22:03;98424.16;;;14.97;100.00
75895;BME280;64573;50.328;15.014;2023-11-21T11:24:45;98422.97;;;15.11;100.00
75895;BME280;64573;50.328;15.014;2023-11-21T11:32:58;98428.88;;;14.58;100.00
75895;BME280;64573;50.328;15.014;2023-11-21T11:37:53;98433.63;;;13.99;100.00
75895;BME280;64573;50.328;15.014;2023-11-21T11:40:20;98425.66;;;14.43;100.00
75895;BME280;64573;50.328;15.014;2023-11-21T11:42:58;98423.38;;;14.46;100.00
75895;BME280;64573;50.328;15.014;2023-11-21T11:45:32;98432.34;;;14.33;100.00
75895;BME280;64573;50.328;15.014;2023-11-21T11:48:00;98418.97;;;14.20;100.00
75895;BME280;64573;50.328;15.014;2023-11-21T11:50:26;98424.78;;;14.17;100.00
75895;BME280;64573;50.328;15.014;2023-11-21T11:52:55;98429.84;;;14.07;100.00
75895;BME280;64573;50.328;15.014;2023-11-21T11:55:36;98437.31;;;14.05;100.00
75895;BME280;64573;50.328;15.014;2023-11-21T11:58:05;98433.56;;;14.13;100.00
75895;BME280;64573;50.328;15.014;2023-11-21T12:00:34;98433.94;;;14.16;100.00
75895;BME280;64573;50.328;15.014;2023-11-21T12:03:03;98436.53;;;14.61;100.00
75895;BME280;64573;50.328;15.014;2023-11-21T12:05:30;98440.44;;;14.33;100.00
75895;BME280;64573;50.328;15.014;2023-11-21T12:08:00;98436.09;;;14.32;100.00
75895;BME280;64573;50.328;15.014;2023-11-21T12:10:28;98434.41;;;14.38;100.00
75895;BME280;64573;50.328;15.014;2023-11-21T12:12:58;98432.19;;;14.60;100.00
75895;BME280;64573;50.328;15.014;2023-11-21T12:15:25;98431.63;;;14.20;100.00
75895;BME280;64573;50.328;15.014;2023-11-21T12:17:51;98435.22;;;14.07;100.00
75895;BME280;64573;50.328;15.014;2023-11-21T12:20:21;98433.75;;;14.11;100.00
75895;BME280;64573;50.328;15.014;2023-11-21T12:25:16;98435.72;;;14.29;100.00
75895;BME280;64573;50.328;15.014;2023-11-21T12:27:47;98436.88;;;14.40;100.00
75895;BME280;64573;50.328;15.014;2023-11-21T12:30:15;98441.56;;;14.19;100.00
75895;BME280;64573;50.328;15.014;2023-11-21T12:35:11;98441.72;;;14.31;100.00
75895;BME280;64573;50.328;15.014;2023-11-21T12:37:41;98448.94;;;13.54;100.00
75895;BME280;64573;50.328;15.014;2023-11-21T12:40:09;98446.56;;;13.13;100.00
75895;BME280;64573;50.328;15.014;2023-11-21T12:42:41;98456.47;;;13.32;100.00
75895;BME280;64573;50.328;15.014;2023-11-21T12:47:43;98450.41;;;13.57;100.00
75895;BME280;64573;50.328;15.014;2023-11-21T12:50:10;98451.75;;;13.79;100.00
75895;BME280;64573;50.328;15.014;2023-11-21T12:52:42;98451.88;;;13.97;100.00
75895;BME280;64573;50.328;15.014;2023-11-21T12:55:13;98455.34;;;13.66;100.00
75895;BME280;64573;50.328;15.014;2023-11-21T12:57:44;98463.03;;;14.07;100.00
75895;BME280;64573;50.328;15.014;2023-11-21T13:00:11;98457.47;;;13.51;100.00
75895;BME280;64573;50.328;15.014;2023-11-21T13:02:41;98453.06;;;13.70;100.00
75895;BME280;64573;50.328;15.014;2023-11-21T13:05:08;98458.34;;;13.32;100.00
75895;BME280;64573;50.328;15.014;2023-11-21T13:07:43;98451.75;;;13.86;100.00
75895;BME280;64573;50.328;15.014;2023-11-21T13:10:11;98453.06;;;14.40;100.00
75895;BME280;64573;50.328;15.014;2023-11-21T13:12:36;98457.50;;;14.27;100.00
75895;BME280;64573;50.328;15.014;2023-11-21T13:17:36;98457.66;;;14.32;100.00
75895;BME280;64573;50.328;15.014;2023-11-21T13:20:02;98463.69;;;13.96;100.00
75895;BME280;64573;50.328;15.014;2023-11-21T13:22:31;98457.66;;;13.63;100.00
75895;BME280;64573;50.328;15.014;2023-11-21T13:24:58;98459.22;;;13.84;100.00
75895;BME280;64573;50.328;15.014;2023-11-21T13:27:24;98460.09;;;14.47;100.00
75895;BME280;64573;50.328;15.014;2023-11-21T13:29:51;98460.81;;;14.61;100.00